createdAt,value
2018-03-29T00:01:24.859Z,7.40
2018-03-29T00:03:52.448Z,7.37
2018-03-29T00:06:20.129Z,7.34
2018-03-29T00:08:47.641Z,7.34
2018-03-29T00:11:15.128Z,7.31
2018-03-29T00:13:42.631Z,7.27
2018-03-29T00:16:10.118Z,7.24
2018-03-29T00:18:37.707Z,7.25
2018-03-29T00:21:05.192Z,7.26
2018-03-29T00:23:32.699Z,7.21
2018-03-29T00:26:00.199Z,7.18
2018-03-29T00:28:27.735Z,7.18
2018-03-29T00:30:55.211Z,7.20
2018-03-29T00:33:22.751Z,7.21
2018-03-29T00:35:50.229Z,7.20
2018-03-29T00:38:17.723Z,7.18
2018-03-29T00:40:45.243Z,7.21
2018-03-29T00:43:12.787Z,7.19
2018-03-29T00:45:40.274Z,7.19
2018-03-29T00:48:07.792Z,7.21
2018-03-29T00:50:35.281Z,7.21
2018-03-29T00:53:14.788Z,7.21
2018-03-29T00:55:42.271Z,7.16
2018-03-29T00:58:09.791Z,7.20
2018-03-29T01:00:37.339Z,7.18
2018-03-29T01:03:04.825Z,7.18
2018-03-29T01:05:32.340Z,7.16
2018-03-29T01:08:00.255Z,7.15
2018-03-29T01:10:28.025Z,7.14
2018-03-29T01:12:55.580Z,7.13
2018-03-29T01:15:23.087Z,7.14
2018-03-29T01:17:50.577Z,7.15
2018-03-29T01:20:18.087Z,7.14
2018-03-29T01:22:45.567Z,7.15
2018-03-29T01:25:13.100Z,7.16
2018-03-29T01:27:40.591Z,7.15
2018-03-29T01:30:08.099Z,7.15
2018-03-29T01:32:39.410Z,7.17
2018-03-29T01:35:06.923Z,7.16
2018-03-29T01:37:34.527Z,7.14
2018-03-29T01:40:02.177Z,7.15
2018-03-29T01:42:29.663Z,7.15
2018-03-29T01:44:57.163Z,7.15
2018-03-29T01:47:24.639Z,7.19
2018-03-29T01:49:52.151Z,7.23
2018-03-29T01:52:19.630Z,7.23
2018-03-29T01:54:47.163Z,7.21
2018-03-29T01:57:14.659Z,7.21
2018-03-29T01:59:42.177Z,7.24
2018-03-29T02:02:09.691Z,7.24
2018-03-29T02:04:37.211Z,7.19
2018-03-29T02:07:04.693Z,7.20
2018-03-29T02:09:32.175Z,7.18
2018-03-29T02:11:59.709Z,7.16
2018-03-29T02:14:27.219Z,7.15
2018-03-29T02:16:54.715Z,7.12
2018-03-29T02:19:22.198Z,7.09
2018-03-29T02:21:49.712Z,7.09
2018-03-29T02:24:17.215Z,7.09
2018-03-29T02:26:44.734Z,7.10
2018-03-29T02:29:12.214Z,7.11
2018-03-29T02:31:39.722Z,7.09
2018-03-29T02:34:07.220Z,7.07
2018-03-29T02:36:34.779Z,7.04
2018-03-29T02:39:02.339Z,7.00
2018-03-29T02:41:29.846Z,7.02
2018-03-29T02:43:57.335Z,7.01
2018-03-29T02:46:24.861Z,7.01
2018-03-29T02:48:52.353Z,7.00
2018-03-29T02:51:19.931Z,7.00
2018-03-29T02:53:47.492Z,6.99
2018-03-29T02:56:15.000Z,6.97
2018-03-29T02:58:42.475Z,6.96
2018-03-29T03:01:09.984Z,6.95
2018-03-29T03:03:37.469Z,6.93
2018-03-29T03:06:04.984Z,6.91
2018-03-29T03:08:32.545Z,6.89
2018-03-29T03:11:00.056Z,6.89
2018-03-29T03:13:27.565Z,6.85
2018-03-29T03:15:55.071Z,6.79
2018-03-29T03:18:22.542Z,6.78
2018-03-29T03:20:50.331Z,6.81
2018-03-29T03:23:17.926Z,6.83
2018-03-29T03:25:45.571Z,6.92
2018-03-29T03:28:13.072Z,6.94
2018-03-29T03:30:40.556Z,6.98
2018-03-29T03:33:08.068Z,7.00
2018-03-29T03:35:35.572Z,7.00
2018-03-29T03:38:03.079Z,7.00
2018-03-29T03:40:30.588Z,7.03
2018-03-29T03:42:58.095Z,7.04
2018-03-29T03:45:25.583Z,7.02
2018-03-29T03:47:53.085Z,6.98
2018-03-29T03:50:20.626Z,6.97
2018-03-29T03:52:48.135Z,7.01
2018-03-29T03:55:15.663Z,7.04
2018-03-29T03:57:43.231Z,7.07
2018-03-29T04:00:10.717Z,7.06
2018-03-29T04:02:38.248Z,7.02
2018-03-29T04:05:05.802Z,7.01
2018-03-29T04:07:33.314Z,6.96
2018-03-29T04:10:00.860Z,6.92
2018-03-29T04:12:28.368Z,6.87
2018-03-29T04:14:55.851Z,6.83
2018-03-29T04:17:23.373Z,6.77
2018-03-29T04:19:50.868Z,6.70
2018-03-29T04:22:18.370Z,6.63
2018-03-29T04:24:45.856Z,6.62
2018-03-29T04:27:13.363Z,6.64
2018-03-29T04:29:40.857Z,6.66
2018-03-29T04:32:08.368Z,6.68
2018-03-29T04:34:35.853Z,6.69
2018-03-29T04:37:03.429Z,6.70
2018-03-29T04:39:30.915Z,6.74
2018-03-29T04:41:58.426Z,6.77
2018-03-29T04:44:26.035Z,6.78
2018-03-29T04:46:53.557Z,6.79
2018-03-29T04:49:21.039Z,6.78
2018-03-29T04:51:48.539Z,6.79
2018-03-29T04:54:16.090Z,6.79
2018-03-29T04:56:43.596Z,6.77
2018-03-29T04:59:11.087Z,6.75
2018-03-29T05:01:38.678Z,6.72
2018-03-29T05:04:06.221Z,6.69
2018-03-29T05:06:33.707Z,6.67
2018-03-29T05:09:01.227Z,6.64
2018-03-29T05:11:28.711Z,6.62
2018-03-29T05:13:56.216Z,6.63
2018-03-29T05:16:23.721Z,6.62
2018-03-29T05:18:51.231Z,6.58
2018-03-29T05:21:18.715Z,6.59
2018-03-29T05:23:46.239Z,6.58
2018-03-29T05:26:13.719Z,6.60
2018-03-29T05:28:41.237Z,6.60
2018-03-29T05:31:08.754Z,6.60
2018-03-29T05:33:36.259Z,6.61
2018-03-29T05:36:03.752Z,6.64
2018-03-29T05:38:31.331Z,6.64
2018-03-29T05:40:58.813Z,6.65
2018-03-29T05:43:26.336Z,6.69
2018-03-29T05:45:53.819Z,6.71
2018-03-29T05:48:21.368Z,6.73
2018-03-29T05:50:48.854Z,6.73
2018-03-29T05:53:16.365Z,6.73
2018-03-29T05:55:43.852Z,6.78
2018-03-29T05:58:11.387Z,6.80
2018-03-29T06:00:38.964Z,6.84
2018-03-29T06:03:06.600Z,6.90
2018-03-29T06:05:34.087Z,6.97
2018-03-29T06:08:01.650Z,7.05
2018-03-29T06:10:29.213Z,7.13
2018-03-29T06:12:56.724Z,7.18
2018-03-29T06:15:24.231Z,7.25
2018-03-29T06:17:57.310Z,7.37
2018-03-29T06:20:24.824Z,7.44
2018-03-29T06:22:52.344Z,7.45
2018-03-29T06:25:19.868Z,7.40
2018-03-29T06:27:47.376Z,7.29
2018-03-29T06:30:14.883Z,7.22
2018-03-29T06:32:42.391Z,7.15
2018-03-29T06:35:09.895Z,7.23
2018-03-29T06:37:37.383Z,7.28
2018-03-29T06:40:04.884Z,7.51
2018-03-29T06:42:32.396Z,7.44
2018-03-29T06:45:01.906Z,7.41
2018-03-29T06:47:29.472Z,7.39
2018-03-29T06:49:56.987Z,7.63
2018-03-29T06:52:24.472Z,8.06
2018-03-29T06:54:52.014Z,8.57
2018-03-29T06:57:19.605Z,8.89
2018-03-29T06:59:47.135Z,8.99
2018-03-29T07:02:14.620Z,9.10
2018-03-29T07:04:42.179Z,9.00
2018-03-29T07:07:09.668Z,9.21
2018-03-29T07:09:37.199Z,9.17
2018-03-29T07:12:04.688Z,9.28
2018-03-29T07:14:32.231Z,9.12
2018-03-29T07:16:59.795Z,9.04
2018-03-29T07:19:27.324Z,8.90
2018-03-29T07:21:54.807Z,8.92
2018-03-29T07:24:22.352Z,9.07
2018-03-29T07:26:49.933Z,9.24
2018-03-29T07:29:17.455Z,9.26
2018-03-29T07:31:44.940Z,9.34
2018-03-29T07:34:12.452Z,9.28
2018-03-29T07:36:39.937Z,9.15
2018-03-29T07:39:07.452Z,9.03
2018-03-29T07:41:34.931Z,9.05
2018-03-29T07:44:02.472Z,9.32
2018-03-29T07:46:29.965Z,9.47
2018-03-29T07:48:57.466Z,9.90
2018-03-29T07:51:25.013Z,10.22
2018-03-29T07:53:52.523Z,10.54
2018-03-29T07:56:20.010Z,10.66
2018-03-29T07:58:47.563Z,10.84
2018-03-29T08:01:15.055Z,11.21
2018-03-29T08:03:42.558Z,11.72
2018-03-29T08:06:10.064Z,11.77
2018-03-29T08:08:37.652Z,11.55
2018-03-29T08:11:05.151Z,11.01
2018-03-29T08:13:32.648Z,11.16
2018-03-29T08:16:00.213Z,11.61
2018-03-29T08:18:27.725Z,11.75
2018-03-29T08:20:55.244Z,11.68
2018-03-29T08:23:22.729Z,11.78
2018-03-29T08:25:50.253Z,12.15
2018-03-29T08:28:17.787Z,12.09
2018-03-29T08:30:45.303Z,11.77
2018-03-29T08:33:12.910Z,11.34
2018-03-29T08:35:40.424Z,11.27
2018-03-29T08:38:07.913Z,11.33
2018-03-29T08:40:35.429Z,11.63
2018-03-29T08:43:02.923Z,11.95
2018-03-29T08:45:30.427Z,11.92
2018-03-29T08:47:57.949Z,11.96
2018-03-29T08:50:25.458Z,11.93
2018-03-29T08:52:52.967Z,12.19
2018-03-29T08:55:20.520Z,12.23
2018-03-29T08:57:48.011Z,12.30
2018-03-29T09:00:15.554Z,12.44
2018-03-29T09:02:43.058Z,12.31
2018-03-29T09:05:10.577Z,12.33
2018-03-29T09:07:38.063Z,12.45
2018-03-29T09:10:05.580Z,12.42
2018-03-29T09:12:33.060Z,12.19
2018-03-29T09:15:00.578Z,12.29
2018-03-29T09:17:28.079Z,12.07
2018-03-29T09:19:55.583Z,11.97
2018-03-29T09:22:23.070Z,12.01
2018-03-29T09:24:50.739Z,11.74
2018-03-29T09:27:18.239Z,11.93
2018-03-29T09:29:45.766Z,11.82
2018-03-29T09:32:13.247Z,11.75
2018-03-29T09:34:40.768Z,11.67
2018-03-29T09:37:08.279Z,11.62
2018-03-29T09:39:35.796Z,11.77
2018-03-29T09:42:03.321Z,11.54
2018-03-29T09:44:30.807Z,11.31
2018-03-29T09:46:58.367Z,11.00
2018-03-29T09:49:25.857Z,10.74
2018-03-29T09:51:53.383Z,10.49
2018-03-29T09:54:20.919Z,10.30
2018-03-29T09:56:48.460Z,9.98
2018-03-29T09:59:15.946Z,9.79
2018-03-29T10:01:44.352Z,9.55
2018-03-29T10:04:12.779Z,9.46
2018-03-29T10:06:52.167Z,9.65
2018-03-29T10:09:19.652Z,10.02
2018-03-29T10:11:47.172Z,10.42
2018-03-29T10:14:14.750Z,10.34
2018-03-29T10:16:42.266Z,10.28
2018-03-29T10:19:09.866Z,10.23
2018-03-29T10:21:37.428Z,9.97
2018-03-29T10:24:05.899Z,9.96
2018-03-29T10:26:33.464Z,9.98
2018-03-29T10:29:01.015Z,9.93
2018-03-29T10:31:28.525Z,10.03
2018-03-29T10:33:56.020Z,10.29
2018-03-29T10:36:23.555Z,10.72
2018-03-29T10:38:51.040Z,11.12
2018-03-29T10:41:18.572Z,11.32
2018-03-29T10:43:46.072Z,11.41
2018-03-29T10:46:13.579Z,11.63
2018-03-29T10:48:41.066Z,11.50
2018-03-29T10:51:08.612Z,11.64
2018-03-29T10:53:36.195Z,12.25
2018-03-29T10:56:03.760Z,12.38
2018-03-29T10:58:31.260Z,11.97
2018-03-29T11:00:58.772Z,11.71
2018-03-29T11:03:26.263Z,11.41
2018-03-29T11:05:53.832Z,11.17
2018-03-29T11:08:21.323Z,11.00
2018-03-29T11:10:48.836Z,11.03
2018-03-29T11:13:16.599Z,11.09
2018-03-29T11:15:44.103Z,11.13
2018-03-29T11:18:11.610Z,11.13
2018-03-29T11:20:39.150Z,11.16
2018-03-29T11:23:06.666Z,11.38
2018-03-29T11:25:34.168Z,11.10
2018-03-29T11:28:01.675Z,10.86
2018-03-29T11:30:29.184Z,10.90
2018-03-29T11:32:56.711Z,10.68
2018-03-29T11:35:24.191Z,10.49
2018-03-29T11:37:51.741Z,10.57
2018-03-29T11:40:19.227Z,10.44
2018-03-29T11:42:46.739Z,10.39
2018-03-29T11:45:14.231Z,10.21
2018-03-29T11:47:41.816Z,10.14
2018-03-29T11:50:09.377Z,9.93
2018-03-29T11:52:36.915Z,9.89
2018-03-29T11:55:04.476Z,9.76
2018-03-29T11:57:32.039Z,9.66
2018-03-29T11:59:59.519Z,9.45
2018-03-29T12:02:27.175Z,9.30
2018-03-29T12:04:54.699Z,9.21
2018-03-29T12:07:22.398Z,8.89
2018-03-29T12:09:49.941Z,8.60
2018-03-29T12:12:17.472Z,8.59
2018-03-29T12:14:44.985Z,8.54
2018-03-29T12:17:12.524Z,8.39
2018-03-29T12:19:40.013Z,8.42
2018-03-29T12:22:07.546Z,8.28
2018-03-29T12:24:35.092Z,8.21
2018-03-29T12:27:02.663Z,8.20
2018-03-29T12:29:30.159Z,8.34
2018-03-29T12:31:57.694Z,8.50
2018-03-29T12:34:25.222Z,8.60
2018-03-29T12:36:52.861Z,8.64
2018-03-29T12:39:20.352Z,8.68
2018-03-29T12:41:47.855Z,8.77
2018-03-29T12:44:15.340Z,8.91
2018-03-29T12:46:42.815Z,8.96
2018-03-29T12:49:10.384Z,9.16
2018-03-29T12:51:37.945Z,9.26
2018-03-29T12:54:05.471Z,9.54
2018-03-29T12:56:44.671Z,9.66
2018-03-29T12:59:12.188Z,9.88
2018-03-29T13:01:39.756Z,9.90
2018-03-29T13:04:07.311Z,9.97
2018-03-29T13:06:34.804Z,10.07
2018-03-29T13:09:02.326Z,10.03
2018-03-29T13:11:29.820Z,10.06
2018-03-29T13:13:57.340Z,10.16
2018-03-29T13:16:24.829Z,10.06
2018-03-29T13:18:52.347Z,10.09
2018-03-29T13:21:19.843Z,10.37
2018-03-29T13:23:47.396Z,10.45
2018-03-29T13:26:14.939Z,10.49
2018-03-29T13:28:42.464Z,10.52
2018-03-29T13:31:10.154Z,10.49
2018-03-29T13:33:37.693Z,10.64
2018-03-29T13:36:05.218Z,10.67
2018-03-29T13:38:32.752Z,10.46
2018-03-29T13:41:00.239Z,10.43
2018-03-29T13:43:27.772Z,10.33
2018-03-29T13:45:55.269Z,10.21
2018-03-29T13:48:22.796Z,10.20
2018-03-29T13:50:50.276Z,10.29
2018-03-29T13:53:17.805Z,10.42
2018-03-29T13:55:45.419Z,10.57
2018-03-29T13:58:12.928Z,10.80
2018-03-29T14:00:40.406Z,11.05
2018-03-29T14:03:07.922Z,11.18
2018-03-29T14:05:35.435Z,11.48
2018-03-29T14:08:02.945Z,11.85
2018-03-29T14:10:30.525Z,12.21
2018-03-29T14:12:58.010Z,12.59
2018-03-29T14:15:26.475Z,13.12
2018-03-29T14:17:54.241Z,13.26
2018-03-29T14:20:22.059Z,13.79
2018-03-29T14:22:49.872Z,13.90
2018-03-29T14:25:17.452Z,14.65
2018-03-29T14:27:44.995Z,15.03
2018-03-29T14:30:12.758Z,15.17
2018-03-29T14:32:40.469Z,15.31
2018-03-29T14:35:08.134Z,15.47
2018-03-29T14:37:35.692Z,16.26
2018-03-29T14:40:03.507Z,18.35
2018-03-29T14:42:31.274Z,20.38
2018-03-29T14:44:58.936Z,21.27
2018-03-29T14:47:26.544Z,22.64
2018-03-29T14:49:54.263Z,23.03
2018-03-29T14:52:22.024Z,21.33
2018-03-29T14:54:49.791Z,21.22
2018-03-29T14:57:17.554Z,21.99
2018-03-29T14:59:45.317Z,23.01
2018-03-29T15:02:12.992Z,22.32
2018-03-29T15:04:40.693Z,22.22
2018-03-29T15:07:08.253Z,21.05
2018-03-29T15:09:35.772Z,20.38
2018-03-29T15:12:03.303Z,18.07
2018-03-29T15:14:30.837Z,16.20
2018-03-29T15:16:58.332Z,15.58
2018-03-29T15:19:25.880Z,15.26
2018-03-29T15:21:53.367Z,15.52
2018-03-29T15:24:20.911Z,14.98
2018-03-29T15:26:48.520Z,14.62
2018-03-29T15:29:16.072Z,14.37
2018-03-29T15:31:45.277Z,14.54
2018-03-29T15:34:16.005Z,14.83
2018-03-29T15:36:44.427Z,15.96
2018-03-29T15:39:14.255Z,15.65
2018-03-29T15:41:42.887Z,15.67
2018-03-29T15:44:10.522Z,15.74
2018-03-29T15:46:38.022Z,15.28
2018-03-29T15:49:05.545Z,14.90
2018-03-29T15:51:33.028Z,14.27
2018-03-29T15:54:00.558Z,13.30
2018-03-29T15:56:28.091Z,12.69
2018-03-29T15:58:55.578Z,12.24
2018-03-29T16:01:23.144Z,12.01
2018-03-29T16:03:50.712Z,11.80
2018-03-29T16:06:18.220Z,12.03
2018-03-29T16:08:45.707Z,12.39
2018-03-29T16:11:13.277Z,12.70
2018-03-29T16:13:40.832Z,12.74
2018-03-29T16:16:08.400Z,12.78
2018-03-29T16:18:35.951Z,12.80
2018-03-29T16:21:03.515Z,12.87
2018-03-29T16:23:31.000Z,15.17
2018-03-29T16:25:58.528Z,15.51
2018-03-29T16:28:26.020Z,13.85
2018-03-29T16:30:53.541Z,12.69
2018-03-29T16:33:21.068Z,12.25
2018-03-29T16:35:48.679Z,12.02
2018-03-29T16:38:16.171Z,12.02
2018-03-29T16:40:43.676Z,12.02
2018-03-29T16:43:11.196Z,11.86
2018-03-29T16:45:38.699Z,11.89
2018-03-29T16:48:06.181Z,14.53
2018-03-29T16:50:33.803Z,16.68
2018-03-29T16:53:01.363Z,16.17
2018-03-29T16:55:28.875Z,18.79
2018-03-29T16:57:56.401Z,19.89
2018-03-29T17:00:23.911Z,19.59
2018-03-29T17:02:51.408Z,17.70
2018-03-29T17:05:18.919Z,15.60
2018-03-29T17:07:46.413Z,14.26
2018-03-29T17:10:13.963Z,13.10
2018-03-29T17:12:41.448Z,12.16
2018-03-29T17:15:09.003Z,11.50
2018-03-29T17:17:36.498Z,10.96
2018-03-29T17:20:04.032Z,10.61
2018-03-29T17:22:31.544Z,10.28
2018-03-29T17:24:59.051Z,10.00
2018-03-29T17:27:26.614Z,9.83
2018-03-29T17:29:54.112Z,9.58
2018-03-29T17:32:21.612Z,9.39
2018-03-29T17:34:49.100Z,9.20
2018-03-29T17:37:16.657Z,9.01
2018-03-29T17:39:44.207Z,8.86
2018-03-29T17:42:11.707Z,8.71
2018-03-29T17:44:39.217Z,8.58
2018-03-29T17:47:06.751Z,8.41
2018-03-29T17:49:34.230Z,8.35
2018-03-29T17:52:01.816Z,8.30
2018-03-29T17:54:29.361Z,8.23
2018-03-29T17:56:56.965Z,8.16
2018-03-29T17:59:24.467Z,8.05
2018-03-29T18:01:52.872Z,8.00
2018-03-29T18:04:20.363Z,7.90
2018-03-29T18:06:47.883Z,7.91
2018-03-29T18:09:15.432Z,7.84
2018-03-29T18:11:42.933Z,7.76
2018-03-29T18:14:10.408Z,7.84
2018-03-29T18:16:37.914Z,7.79
2018-03-29T18:19:05.439Z,7.71
2018-03-29T18:21:32.949Z,7.69
2018-03-29T18:24:00.510Z,7.64
2018-03-29T18:26:28.091Z,7.51
2018-03-29T18:28:55.608Z,7.47
2018-03-29T18:31:23.146Z,7.50
2018-03-29T18:33:50.699Z,7.43
2018-03-29T18:36:18.183Z,7.33
2018-03-29T18:38:45.707Z,7.32
2018-03-29T18:41:13.187Z,7.36
2018-03-29T18:43:40.860Z,7.31
2018-03-29T18:46:08.348Z,7.38
2018-03-29T18:48:35.900Z,7.38
2018-03-29T18:51:03.418Z,7.34
2018-03-29T18:53:30.931Z,7.31
2018-03-29T18:55:58.448Z,7.24
2018-03-29T18:58:25.954Z,7.20
2018-03-29T19:00:53.451Z,7.14
2018-03-29T19:03:21.057Z,7.05
2018-03-29T19:05:48.565Z,7.06
2018-03-29T19:08:16.096Z,7.00
2018-03-29T19:10:43.619Z,6.94
2018-03-29T19:13:11.144Z,6.88
2018-03-29T19:15:38.637Z,6.98
2018-03-29T19:18:06.323Z,6.82
2018-03-29T19:20:33.932Z,6.69
2018-03-29T19:23:01.456Z,6.61
2018-03-29T19:25:28.966Z,6.56
2018-03-29T19:27:56.470Z,6.52
2018-03-29T19:30:23.972Z,6.52
2018-03-29T19:32:51.471Z,6.54
2018-03-29T19:35:19.013Z,6.39
2018-03-29T19:37:46.520Z,6.57
2018-03-29T19:40:14.027Z,6.69
2018-03-29T19:42:41.516Z,6.61
2018-03-29T19:45:09.035Z,6.57
2018-03-29T19:47:36.588Z,6.48
2018-03-29T19:50:04.100Z,6.32
2018-03-29T19:52:31.594Z,6.18
2018-03-29T19:54:59.109Z,6.18
2018-03-29T19:57:26.614Z,6.26
2018-03-29T19:59:54.157Z,6.19
2018-03-29T20:02:21.656Z,6.20
2018-03-29T20:04:49.155Z,6.21
2018-03-29T20:07:16.644Z,6.35
2018-03-29T20:09:44.192Z,6.41
2018-03-29T20:12:11.783Z,6.26
2018-03-29T20:14:39.288Z,6.15
2018-03-29T20:17:06.773Z,6.11
2018-03-29T20:19:34.287Z,6.03
2018-03-29T20:22:01.841Z,5.91
2018-03-29T20:24:29.390Z,5.82
2018-03-29T20:26:56.870Z,5.84
2018-03-29T20:29:24.396Z,5.90
2018-03-29T20:31:51.924Z,5.87
2018-03-29T20:34:19.450Z,5.75
2018-03-29T20:36:47.089Z,5.88
2018-03-29T20:39:14.593Z,6.05
2018-03-29T20:41:42.101Z,6.11
2018-03-29T20:44:09.620Z,6.08
2018-03-29T20:46:37.198Z,6.03
2018-03-29T20:49:04.825Z,6.00
2018-03-29T20:51:32.368Z,5.99
2018-03-29T20:53:59.858Z,5.96
2018-03-29T20:56:27.433Z,5.93
2018-03-29T20:58:55.332Z,5.92
2018-03-29T21:01:22.845Z,6.02
2018-03-29T21:03:50.351Z,5.96
2018-03-29T21:06:17.907Z,5.92
2018-03-29T21:08:45.459Z,5.94
2018-03-29T21:11:12.978Z,5.87
2018-03-29T21:13:40.470Z,5.89
2018-03-29T21:16:07.992Z,5.99
2018-03-29T21:18:35.481Z,5.96
2018-03-29T21:21:03.047Z,5.94
2018-03-29T21:23:30.544Z,5.89
2018-03-29T21:25:58.081Z,5.89
2018-03-29T21:28:25.619Z,5.88
2018-03-29T21:30:53.144Z,5.75
2018-03-29T21:33:20.687Z,5.80
2018-03-29T21:35:48.251Z,5.81
2018-03-29T21:38:15.740Z,5.74
2018-03-29T21:40:43.252Z,5.69
2018-03-29T21:43:10.750Z,5.66
2018-03-29T21:45:38.255Z,5.66
2018-03-29T21:48:05.743Z,5.66
2018-03-29T21:50:33.256Z,5.60
2018-03-29T21:53:00.760Z,5.68
2018-03-29T21:55:28.318Z,5.66
2018-03-29T21:57:55.806Z,5.66
2018-03-29T22:00:23.312Z,5.65
2018-03-29T22:02:50.840Z,5.57
2018-03-29T22:05:18.427Z,5.51
2018-03-29T22:07:45.929Z,5.37
2018-03-29T22:10:13.420Z,5.44
2018-03-29T22:12:40.942Z,5.39
2018-03-29T22:15:08.427Z,5.36
2018-03-29T22:17:35.938Z,5.40
2018-03-29T22:20:03.419Z,5.44
2018-03-29T22:22:30.928Z,5.40
2018-03-29T22:24:58.444Z,5.43
2018-03-29T22:27:25.975Z,5.35
2018-03-29T22:29:53.508Z,5.30
2018-03-29T22:32:21.084Z,5.39
2018-03-29T22:34:48.589Z,5.36
2018-03-29T22:37:16.108Z,5.38
2018-03-29T22:39:43.646Z,5.34
2018-03-29T22:42:11.158Z,5.32
2018-03-29T22:44:38.638Z,5.32
2018-03-29T22:47:07.128Z,5.34
2018-03-29T22:49:34.699Z,5.36
2018-03-29T22:52:02.216Z,5.31
2018-03-29T22:54:29.746Z,5.33
2018-03-29T22:56:57.286Z,5.11
2018-03-29T22:59:24.767Z,5.15
2018-03-29T23:01:52.304Z,5.09
2018-03-29T23:04:19.784Z,5.13
2018-03-29T23:06:47.286Z,5.27
2018-03-29T23:09:14.758Z,5.32
2018-03-29T23:11:42.276Z,5.43
2018-03-29T23:14:09.809Z,5.39
2018-03-29T23:16:37.384Z,5.41
2018-03-29T23:19:04.901Z,5.35
2018-03-29T23:21:32.386Z,5.32
2018-03-29T23:23:59.899Z,5.31
2018-03-29T23:26:28.451Z,5.32
2018-03-29T23:28:56.055Z,5.24
2018-03-29T23:31:23.545Z,5.28
2018-03-29T23:33:51.076Z,5.28
2018-03-29T23:36:18.568Z,5.28
2018-03-29T23:38:46.092Z,5.35
2018-03-29T23:41:13.570Z,5.34
2018-03-29T23:43:41.111Z,5.28
2018-03-29T23:46:08.595Z,5.22
2018-03-29T23:48:36.119Z,5.12
2018-03-29T23:51:03.611Z,5.13
2018-03-29T23:53:31.123Z,5.13
2018-03-29T23:55:58.622Z,5.22
2018-03-29T23:58:26.159Z,5.26
